Geneva, Switzerland

12:30 PM CET on January 29, 2015 (GMT +0100)
Cointrin | Change Station
CLOSE
Current Station
Airport
Location: Geneva,
Elevation: 1378 ft
Nearby Weather Stations

Elev 1378 ft 46.25 °N, 6.13 °E | Updated 10 minutes ago

Light Rain
Light Rain
39 °F
Feels Like 31 °F
N
14
Wind Variable Wind from WSW

Today
High -- | Low -- °F
--% Chance of Precip.
Yesterday
High -- | Low -- °F
Precip. -- in
8:02 AM 5:35 PM
Waxing Gibbous, 73% visible
Pressure 29.53 in
Visibility 6.2 miles
Clouds Few 800 ft
Scattered Clouds 2500 ft
Overcast 4000 ft
Windchill 31 °F
Dew Point 36 °F
Humidity 87%
Rainfall 0.00 in
Snow Depth Not available.
UV 1 out of 12
Pollen Not available.
Air Quality Not available.
Flu Activity Not available.
METAR LSGG 291120Z 24012KT 9999 -RA FEW008 SCT025 OVC040 04/02 Q1000 NOSIG

More Conditions Fewer Conditions

Pressure 29.53 in
Visibility 6.2 miles
Clouds Few 800 ft
Scattered Clouds 2500 ft
Overcast 4000 ft
Windchill 31 °F
Dew Point 36 °F
Humidity 87%
Rainfall 0.00 in
Snow Depth Not available.
UV 1 out of 12
Pollen Not available.
Air Quality Not available.
Flu Activity Not available.
METAR LSGG 291120Z 24012KT 9999 -RA FEW008 SCT025 OVC040 04/02 Q1000 NOSIG

More Conditions Fewer Conditions

10-Day Weather Forecast

Almanac

Astronomy

Jan. 29, 2015 Rise Set
Actual Time
Civil Twilight
Nautical Twilight
Astronomical Twilight
Moon
Length of Visible Light
Length of Day
Tomorrow will be .
, % of the Moon is Illuminated

Today's Extremes

Country Highs Country Lows

Community

WunderPhotos

Upload Photos

1,791,407 photos uploaded!

WunderBlogs® & News

Nearby

Air Quality

  Air Quality AQ Index Pollutant
Not available.

Snow Depth

Station Depth Elevation

Earthquake Activity

City Distance Mag. Time & Date
Minimum magnitude displayed is 2.5.

Coastal Water Temperatures

Place Temperature

Nearby Weather Stations